Time;durP1;ratioP1;P1;durP2;ratioP2;P2;SDS_P1;SDS_P2;PMS_P1;PMS_P2;Temp;Humidity;BMP_temperature;BMP_pressure;BME280_temperature;BME280_humidity;BME280_pressure;Samples;Min_cycle;Max_cycle;Signal;HPM_P1;HPM_P2
2024/01/10 00:00:00;;;;;;;7.45;6.30;;;-7.00;99.90;;;;;;5038411;28;20213;-60
2024/01/10 00:02:27;;;;;;;13.80;6.25;;;-7.00;99.90;;;;;;5035502;28;20272;-60
2024/01/10 00:04:54;;;;;;;7.55;6.40;;;-7.00;99.90;;;;;;5034883;28;20213;-60
2024/01/10 00:07:22;;;;;;;7.32;6.13;;;-7.10;99.90;;;;;;5033975;28;20229;-60
2024/01/10 00:09:48;;;;;;;10.95;6.10;;;-7.10;99.90;;;;;;5033369;28;20210;-60
2024/01/10 00:12:15;;;;;;;9.40;6.57;;;-7.10;99.90;;;;;;5033454;28;20222;-61
2024/01/10 00:14:42;;;;;;;9.82;5.30;;;-7.10;99.90;;;;;;5033312;28;20202;-60
2024/01/10 00:17:09;;;;;;;12.57;6.43;;;-7.10;99.90;;;;;;5033204;28;20600;-60
2024/01/10 00:19:36;;;;;;;9.05;7.10;;;-7.20;99.90;;;;;;5033640;28;20198;-61
2024/01/10 00:22:02;;;;;;;12.68;6.95;;;-7.10;99.90;;;;;;5033800;28;20222;-60
2024/01/10 00:24:31;;;;;;;10.30;6.80;;;-7.20;99.90;;;;;;5033677;28;20237;-60
2024/01/10 00:26:57;;;;;;;7.60;5.35;;;-7.20;99.90;;;;;;5033335;28;20206;-61
2024/01/10 00:29:24;;;;;;;8.90;5.78;;;-7.20;99.90;;;;;;5037177;28;20783;-60
2024/01/10 00:31:52;;;;;;;8.95;6.60;;;-7.20;99.90;;;;;;5038062;28;20599;-61
2024/01/10 00:34:19;;;;;;;10.05;7.80;;;-7.20;99.90;;;;;;5051715;28;20229;-60
2024/01/10 00:36:46;;;;;;;9.43;6.60;;;-7.20;99.90;;;;;;5042578;28;20248;-61
2024/01/10 00:39:13;;;;;;;9.48;5.95;;;-7.20;99.90;;;;;;5038006;28;20229;-61
2024/01/10 00:41:41;;;;;;;16.35;7.32;;;-7.20;99.90;;;;;;5037130;28;20711;-60
2024/01/10 00:44:08;;;;;;;13.10;6.93;;;-7.20;99.90;;;;;;5037240;28;20198;-60
2024/01/10 00:46:34;;;;;;;10.88;7.57;;;-7.20;99.90;;;;;;5037074;28;20207;-60
2024/01/10 00:49:01;;;;;;;9.43;6.53;;;-7.20;99.90;;;;;;5037116;28;20206;-59
2024/01/10 00:51:28;;;;;;;10.95;6.43;;;-7.30;99.90;;;;;;5037009;28;20223;-60
2024/01/10 00:53:55;;;;;;;12.18;7.65;;;-7.30;99.90;;;;;;5037238;28;20202;-60
2024/01/10 00:56:21;;;;;;;10.07;5.95;;;-7.30;99.90;;;;;;5036714;28;20210;-61
2024/01/10 00:58:50;;;;;;;10.88;6.60;;;-7.30;99.90;;;;;;5036919;28;20214;-60
2024/01/10 01:01:16;;;;;;;10.15;6.30;;;-7.30;99.90;;;;;;5036421;28;20556;-61
2024/01/10 01:03:43;;;;;;;7.60;5.65;;;-7.30;99.90;;;;;;5036375;28;20676;-61
2024/01/10 01:06:10;;;;;;;11.02;6.53;;;-7.30;99.90;;;;;;5036829;28;20555;-59
2024/01/10 01:08:37;;;;;;;12.38;7.60;;;-7.30;99.90;;;;;;5037187;28;20198;-60
2024/01/10 01:11:04;;;;;;;10.50;6.32;;;-7.30;99.90;;;;;;5037017;28;20223;-60
2024/01/10 01:13:31;;;;;;;10.95;6.45;;;-7.30;99.90;;;;;;5036911;28;20198;-61
2024/01/10 01:15:59;;;;;;;11.60;6.40;;;-7.30;99.90;;;;;;5040290;28;20207;-59
2024/01/10 01:18:25;;;;;;;9.60;5.63;;;-7.40;99.90;;;;;;5041363;28;20229;-60
2024/01/10 01:20:52;;;;;;;10.98;6.70;;;-7.40;99.90;;;;;;5041384;28;20214;-61
2024/01/10 01:23:19;;;;;;;11.32;7.10;;;-7.40;99.90;;;;;;5042152;28;20289;-61
2024/01/10 01:25:46;;;;;;;9.82;6.20;;;-7.40;99.90;;;;;;5038763;28;20209;-61
2024/01/10 01:28:13;;;;;;;9.68;6.40;;;-7.40;99.90;;;;;;5037601;28;20209;-60
2024/01/10 01:30:40;;;;;;;13.52;8.25;;;-7.40;99.90;;;;;;5036590;28;20206;-62
2024/01/10 01:33:08;;;;;;;11.55;7.15;;;-7.40;99.90;;;;;;5036692;28;20206;-61
2024/01/10 01:35:35;;;;;;;8.45;6.78;;;-7.40;99.90;;;;;;5036199;28;20751;-61
2024/01/10 01:38:01;;;;;;;12.55;7.30;;;-7.40;99.90;;;;;;5037002;28;20226;-61
2024/01/10 01:40:28;;;;;;;11.32;7.35;;;-7.50;99.90;;;;;;5039258;28;20215;-61
2024/01/10 01:42:55;;;;;;;9.45;5.90;;;-7.50;99.90;;;;;;5038966;28;20223;-59
2024/01/10 01:45:22;;;;;;;9.32;6.15;;;-7.50;99.90;;;;;;5036879;28;20217;-61
2024/01/10 01:47:48;;;;;;;11.50;7.32;;;-7.50;99.90;;;;;;5036530;28;20198;-62
2024/01/10 01:50:17;;;;;;;11.45;7.38;;;-7.50;99.90;;;;;;5036619;28;20205;-61
2024/01/10 01:52:44;;;;;;;16.65;8.88;;;-7.60;99.90;;;;;;5035974;28;20233;-61
2024/01/10 01:55:11;;;;;;;18.50;6.28;;;-7.60;99.90;;;;;;5035966;28;20210;-61
2024/01/10 01:57:39;;;;;;;11.77;7.18;;;-7.60;99.90;;;;;;5035573;28;20206;-61
2024/01/10 02:00:08;;;;;;;16.20;7.82;;;-7.50;99.90;;;;;;5035716;28;20202;-61
2024/01/10 02:02:36;;;;;;;13.07;7.97;;;-7.50;99.90;;;;;;5035589;28;20318;-60
2024/01/10 02:05:03;;;;;;;9.70;6.68;;;-7.50;99.90;;;;;;5035632;28;20198;-60
2024/01/10 02:07:32;;;;;;;13.38;7.78;;;-7.50;99.90;;;;;;5035673;28;20202;-61
2024/01/10 02:09:58;;;;;;;11.85;9.13;;;-7.50;99.90;;;;;;5035748;28;20208;-60
2024/01/10 02:12:26;;;;;;;13.15;7.75;;;-7.50;99.90;;;;;;5035649;28;20314;-61
2024/01/10 02:14:53;;;;;;;9.88;7.95;;;-7.50;99.90;;;;;;5035523;28;20673;-60
2024/01/10 02:17:19;;;;;;;9.80;6.30;;;-7.60;99.90;;;;;;5035514;28;20213;-60
2024/01/10 02:19:46;;;;;;;12.18;6.93;;;-7.60;99.90;;;;;;5038732;28;20662;-60
2024/01/10 02:22:13;;;;;;;11.07;7.50;;;-7.60;99.90;;;;;;5039071;28;20226;-60
2024/01/10 02:24:41;;;;;;;11.25;6.63;;;-7.60;99.90;;;;;;5041454;28;20199;-59
2024/01/10 02:27:09;;;;;;;15.07;8.00;;;-7.60;99.90;;;;;;5040741;28;20209;-61
2024/01/10 02:29:36;;;;;;;11.43;7.28;;;-7.60;99.90;;;;;;5036870;28;20199;-60
2024/01/10 02:32:03;;;;;;;9.48;7.35;;;-7.60;99.90;;;;;;5035367;28;20226;-59
2024/01/10 02:34:31;;;;;;;11.63;7.97;;;-7.60;99.90;;;;;;5035283;28;20209;-61
2024/01/10 02:36:58;;;;;;;13.05;7.93;;;-7.60;99.90;;;;;;5046766;28;20202;-61
2024/01/10 02:39:24;;;;;;;10.60;7.07;;;-7.60;99.90;;;;;;5042011;28;20222;-60
2024/01/10 02:41:51;;;;;;;15.70;8.35;;;-7.60;99.90;;;;;;5035114;28;20225;-61
2024/01/10 02:44:20;;;;;;;12.45;8.70;;;-7.60;99.90;;;;;;5035211;28;20209;-61
2024/01/10 02:46:46;;;;;;;11.50;8.27;;;-7.70;99.90;;;;;;5035213;28;20214;-61
2024/01/10 02:49:13;;;;;;;13.25;7.93;;;-7.60;99.90;;;;;;5035309;28;20710;-59
2024/01/10 02:51:40;;;;;;;10.77;8.02;;;-7.70;99.90;;;;;;5033987;28;20225;-60
2024/01/10 02:54:07;;;;;;;12.85;8.32;;;-7.70;99.90;;;;;;5035164;28;20202;-60
2024/01/10 02:56:33;;;;;;;14.10;7.65;;;-7.70;99.90;;;;;;5035014;28;20212;-62
2024/01/10 02:59:00;;;;;;;13.77;7.30;;;-7.70;99.90;;;;;;5035090;28;20310;-60
2024/01/10 03:01:28;;;;;;;11.18;7.95;;;-7.70;99.90;;;;;;5035306;28;20234;-61
2024/01/10 03:03:55;;;;;;;12.93;7.75;;;-7.70;99.90;;;;;;5034881;28;20597;-60
2024/01/10 03:06:22;;;;;;;10.95;7.20;;;-7.80;99.90;;;;;;5034740;28;20203;-61
2024/01/10 03:08:49;;;;;;;10.50;7.40;;;-7.80;99.90;;;;;;5034455;28;20194;-61
2024/01/10 03:11:16;;;;;;;11.00;6.85;;;-7.80;99.90;;;;;;5034525;28;20227;-61
2024/01/10 03:13:46;;;;;;;14.45;8.73;;;-7.80;99.90;;;;;;5034305;28;20206;-61
2024/01/10 03:16:13;;;;;;;10.98;7.85;;;-7.80;99.90;;;;;;5033906;28;20216;-62
2024/01/10 03:18:41;;;;;;;11.98;9.15;;;-7.80;99.90;;;;;;5034147;28;20222;-62
2024/01/10 03:21:08;;;;;;;15.63;8.52;;;-7.80;99.90;;;;;;5034459;28;20218;-60
2024/01/10 03:23:35;;;;;;;12.07;8.10;;;-7.80;99.90;;;;;;5035749;28;20209;-62
2024/01/10 03:26:02;;;;;;;14.45;8.52;;;-7.90;99.90;;;;;;5034632;28;20581;-61
2024/01/10 03:28:28;;;;;;;12.82;6.80;;;-7.90;99.90;;;;;;5037607;28;20202;-62
2024/01/10 03:30:55;;;;;;;13.57;7.82;;;-7.90;99.90;;;;;;5037391;28;20297;-61
2024/01/10 03:33:22;;;;;;;10.68;7.68;;;-7.90;99.90;;;;;;5038346;28;20206;-61
2024/01/10 03:35:50;;;;;;;11.85;8.40;;;-7.90;99.90;;;;;;5037770;28;20767;-61
2024/01/10 03:38:17;;;;;;;15.27;8.85;;;-8.00;99.90;;;;;;5037096;28;20531;-58
2024/01/10 03:40:43;;;;;;;13.10;8.05;;;-8.00;99.90;;;;;;5038975;28;20206;-62
2024/01/10 03:43:12;;;;;;;11.95;7.63;;;-8.10;99.90;;;;;;5039125;28;20206;-61
2024/01/10 03:45:38;;;;;;;17.38;9.40;;;-8.10;99.90;;;;;;5038852;28;20240;-61
2024/01/10 03:48:06;;;;;;;10.00;7.72;;;-8.10;99.90;;;;;;5036783;28;20218;-60
2024/01/10 03:50:33;;;;;;;11.40;8.00;;;-8.10;99.90;;;;;;5034409;28;20212;-61
2024/01/10 03:53:01;;;;;;;16.52;8.25;;;-8.10;99.90;;;;;;5033830;28;20222;-62
2024/01/10 03:55:28;;;;;;;13.98;8.35;;;-8.10;99.90;;;;;;5033902;28;20573;-61
2024/01/10 03:57:55;;;;;;;13.27;8.15;;;-8.20;99.90;;;;;;5033960;28;20234;-61
2024/01/10 04:00:22;;;;;;;14.77;7.90;;;-8.20;99.90;;;;;;5034505;28;20226;-62
2024/01/10 04:02:49;;;;;;;12.77;8.52;;;-8.20;99.90;;;;;;5032679;28;20230;-61
2024/01/10 04:05:15;;;;;;;11.10;8.75;;;-8.10;99.90;;;;;;5033239;28;20205;-61
2024/01/10 04:07:43;;;;;;;18.25;10.32;;;-8.10;99.90;;;;;;5033568;28;20198;-61
2024/01/10 04:12:58;;;;;;;12.05;9.43;;;-8.10;99.90;;;;;;5092084;28;20553;-62
2024/01/10 04:15:25;;;;;;;16.73;9.32;;;-8.10;99.90;;;;;;5092271;28;20230;-62
2024/01/10 04:17:52;;;;;;;14.68;9.30;;;-8.10;99.90;;;;;;5093002;28;20577;-62
2024/01/10 04:20:19;;;;;;;16.50;10.30;;;-8.10;99.90;;;;;;5092045;28;20671;-62
2024/01/10 04:22:45;;;;;;;14.77;9.40;;;-8.10;99.90;;;;;;5091922;28;20219;-62
2024/01/10 04:25:12;;;;;;;16.83;10.45;;;-8.10;99.90;;;;;;5091876;28;20197;-61
2024/01/10 04:27:39;;;;;;;17.90;10.57;;;-8.10;99.90;;;;;;5091858;28;20200;-62
2024/01/10 04:30:09;;;;;;;17.23;11.65;;;-8.10;99.90;;;;;;5091441;28;20283;-62
2024/01/10 04:32:35;;;;;;;18.70;11.70;;;-8.10;99.90;;;;;;5090712;28;20235;-62
2024/01/10 04:35:02;;;;;;;14.57;10.02;;;-8.10;99.90;;;;;;5090713;28;20673;-62
2024/01/10 04:37:29;;;;;;;19.13;10.77;;;-8.10;99.90;;;;;;5100245;28;20636;-62
2024/01/10 04:39:56;;;;;;;17.92;10.82;;;-8.10;99.90;;;;;;5103388;28;20284;-62
2024/01/10 04:42:23;;;;;;;23.15;11.88;;;-8.10;99.90;;;;;;5091356;28;20216;-61
2024/01/10 04:44:50;;;;;;;20.48;12.18;;;-8.10;99.90;;;;;;5090737;28;20353;-62
2024/01/10 04:47:18;;;;;;;25.25;13.20;;;-8.00;99.90;;;;;;5090557;28;20207;-62
2024/01/10 04:49:45;;;;;;;25.95;12.85;;;-8.00;99.90;;;;;;5090304;28;20201;-62
2024/01/10 04:52:12;;;;;;;29.55;13.25;;;-8.00;99.90;;;;;;5090818;28;20244;-62
2024/01/10 04:54:39;;;;;;;23.35;13.32;;;-8.00;99.90;;;;;;5091081;28;20209;-62
2024/01/10 04:57:07;;;;;;;21.40;12.23;;;-8.00;99.90;;;;;;5090617;28;20215;-61
2024/01/10 04:59:34;;;;;;;20.33;12.32;;;-8.00;99.90;;;;;;5090455;28;20205;-62
2024/01/10 05:02:00;;;;;;;23.35;12.40;;;-8.00;99.90;;;;;;5084314;22;20230;-61
2024/01/10 05:04:29;;;;;;;19.42;12.75;;;-8.00;99.90;;;;;;5051072;28;20202;-61
2024/01/10 05:06:55;;;;;;;20.27;11.82;;;-8.00;99.90;;;;;;5051000;28;20284;-60
2024/01/10 05:09:22;;;;;;;20.23;11.98;;;-8.00;99.90;;;;;;5049742;28;20201;-60
2024/01/10 05:11:51;;;;;;;31.67;14.32;;;-8.00;99.90;;;;;;5051126;28;20221;-60
2024/01/10 05:14:19;;;;;;;16.65;12.45;;;-8.00;99.90;;;;;;5050801;28;20255;-60
2024/01/10 05:16:47;;;;;;;23.42;14.20;;;-8.00;99.90;;;;;;5049773;28;20672;-61
2024/01/10 05:19:14;;;;;;;19.55;11.50;;;-8.00;99.90;;;;;;5049677;28;20201;-61
2024/01/10 05:21:42;;;;;;;24.85;13.70;;;-8.00;99.90;;;;;;5049474;28;20214;-61
2024/01/10 05:24:09;;;;;;;21.83;12.60;;;-8.00;99.90;;;;;;5037110;28;20206;-61
2024/01/10 05:26:36;;;;;;;22.45;13.25;;;-8.00;99.90;;;;;;5036237;28;20559;-61
2024/01/10 05:29:03;;;;;;;23.17;13.70;;;-8.00;99.90;;;;;;5036118;28;20206;-62
2024/01/10 05:31:29;;;;;;;22.38;12.18;;;-8.00;99.90;;;;;;5036541;28;20222;-61
2024/01/10 05:33:56;;;;;;;21.42;14.38;;;-8.00;99.90;;;;;;5038434;28;20198;-61
2024/01/10 05:36:23;;;;;;;26.02;13.15;;;-8.00;99.90;;;;;;5038983;28;20202;-60
2024/01/10 05:38:51;;;;;;;25.45;13.27;;;-8.00;99.90;;;;;;5039263;28;20211;-61
2024/01/10 05:41:18;;;;;;;22.92;14.02;;;-8.00;99.90;;;;;;5037026;28;20226;-60
2024/01/10 05:43:45;;;;;;;17.00;12.38;;;-8.10;99.90;;;;;;5037776;28;20581;-60
2024/01/10 05:46:12;;;;;;;25.75;14.63;;;-8.10;99.90;;;;;;5036246;28;20202;-60
2024/01/10 05:48:39;;;;;;;25.25;13.90;;;-8.10;99.90;;;;;;5036321;28;20210;-61
2024/01/10 05:51:06;;;;;;;24.17;13.27;;;-8.10;99.90;;;;;;5036263;28;20232;-60
2024/01/10 05:53:32;;;;;;;30.17;14.27;;;-8.00;99.90;;;;;;5036595;28;20197;-59
2024/01/10 05:56:01;;;;;;;26.77;13.70;;;-8.00;99.90;;;;;;5036697;28;20206;-60
2024/01/10 05:58:27;;;;;;;21.88;12.30;;;-8.10;99.90;;;;;;5037192;28;20344;-61
2024/01/10 06:00:54;;;;;;;27.10;14.73;;;-8.10;99.90;;;;;;5035944;28;20203;-61
2024/01/10 06:03:21;;;;;;;20.92;14.38;;;-8.10;99.90;;;;;;5037383;28;20596;-59
2024/01/10 06:05:48;;;;;;;25.60;15.00;;;-8.10;99.90;;;;;;5036271;28;20206;-60
2024/01/10 06:08:15;;;;;;;24.50;14.70;;;-8.10;99.90;;;;;;5035497;28;20203;-61
2024/01/10 06:10:42;;;;;;;24.92;13.80;;;-8.10;99.90;;;;;;5035898;28;20310;-60
2024/01/10 06:13:10;;;;;;;29.60;14.80;;;-8.10;99.90;;;;;;5035947;28;20215;-61
2024/01/10 06:15:37;;;;;;;20.77;13.55;;;-8.10;99.90;;;;;;5037588;28;20206;-60
2024/01/10 06:18:05;;;;;;;24.80;13.18;;;-8.10;99.90;;;;;;5038251;28;20608;-60
2024/01/10 06:20:32;;;;;;;18.10;12.60;;;-8.10;99.90;;;;;;5036698;28;20208;-60
2024/01/10 06:22:59;;;;;;;21.83;12.55;;;-8.20;99.90;;;;;;5035472;28;20633;-59
2024/01/10 06:25:27;;;;;;;24.38;14.02;;;-8.20;99.90;;;;;;5035426;28;20257;-59
2024/01/10 06:27:54;;;;;;;23.75;13.45;;;-8.20;99.90;;;;;;5034786;28;20253;-59
2024/01/10 06:30:22;;;;;;;23.77;11.65;;;-8.20;99.90;;;;;;5035371;28;20234;-61
2024/01/10 06:32:49;;;;;;;26.00;14.32;;;-8.20;99.90;;;;;;5035322;28;20222;-60
2024/01/10 06:35:15;;;;;;;24.00;13.88;;;-8.20;99.90;;;;;;5034311;28;20203;-61
2024/01/10 06:37:44;;;;;;;21.63;13.57;;;-8.30;99.90;;;;;;5035976;28;20229;-61
2024/01/10 06:40:11;;;;;;;18.52;12.80;;;-8.20;99.90;;;;;;5035474;28;20207;-61
2024/01/10 06:42:39;;;;;;;27.60;13.90;;;-8.30;99.90;;;;;;5035762;28;20224;-60
2024/01/10 06:45:07;;;;;;;18.98;13.32;;;-8.20;99.90;;;;;;5035639;28;20202;-59
2024/01/10 06:47:35;;;;;;;23.23;12.23;;;-8.30;99.90;;;;;;5034968;28;20202;-60
2024/01/10 06:50:04;;;;;;;19.55;13.23;;;-8.30;99.90;;;;;;5034962;28;20212;-59
2024/01/10 06:52:31;;;;;;;16.50;11.73;;;-8.30;99.90;;;;;;5035180;28;20233;-60
2024/01/10 06:54:57;;;;;;;26.23;12.60;;;-8.30;99.90;;;;;;5036532;28;20214;-60
2024/01/10 06:57:24;;;;;;;22.88;11.63;;;-8.30;99.90;;;;;;5037112;28;20703;-60
2024/01/10 06:59:51;;;;;;;24.48;12.68;;;-8.30;99.90;;;;;;5038778;28;20644;-60
2024/01/10 07:02:18;;;;;;;30.60;17.90;;;-8.40;99.90;;;;;;5035724;28;20430;-59
2024/01/10 07:04:47;;;;;;;24.58;14.95;;;-8.40;99.90;;;;;;5035624;28;20206;-61
2024/01/10 07:07:17;;;;;;;23.98;14.65;;;-8.40;99.90;;;;;;5035051;28;20226;-62
2024/01/10 07:09:43;;;;;;;22.95;13.48;;;-8.40;99.90;;;;;;5036017;28;20210;-61
2024/01/10 07:12:10;;;;;;;29.95;14.23;;;-8.40;99.90;;;;;;5037936;28;20226;-60
2024/01/10 07:14:37;;;;;;;24.42;12.85;;;-8.50;99.90;;;;;;5038156;28;20202;-61
2024/01/10 07:17:04;;;;;;;20.48;13.45;;;-8.50;99.90;;;;;;5036164;28;20687;-61
2024/01/10 07:19:31;;;;;;;21.55;12.13;;;-8.50;99.90;;;;;;5035810;28;20334;-61
2024/01/10 07:21:59;;;;;;;22.70;13.13;;;-8.40;99.90;;;;;;5034809;28;20305;-60
2024/01/10 07:24:27;;;;;;;23.70;13.82;;;-8.50;99.90;;;;;;5035473;28;20614;-60
2024/01/10 07:26:54;;;;;;;22.20;12.32;;;-8.40;99.90;;;;;;5035337;28;20202;-61
2024/01/10 07:29:21;;;;;;;20.48;12.20;;;-8.50;99.90;;;;;;5034941;28;20209;-61
2024/01/10 07:31:47;;;;;;;30.05;15.25;;;-8.40;99.90;;;;;;5035908;28;20225;-60
2024/01/10 07:34:14;;;;;;;22.05;13.23;;;-8.40;99.90;;;;;;5036229;28;20209;-61
2024/01/10 07:36:44;;;;;;;27.00;14.90;;;-8.40;99.90;;;;;;5036147;28;20202;-61
2024/01/10 07:39:15;;;;;;;23.88;14.30;;;-8.50;99.90;;;;;;5037126;28;20202;-61
2024/01/10 07:41:42;;;;;;;22.92;12.88;;;-8.40;99.90;;;;;;5036950;28;20222;-62
2024/01/10 07:44:10;;;;;;;24.08;11.85;;;-8.40;99.90;;;;;;5037097;28;20578;-61
2024/01/10 07:46:37;;;;;;;20.77;13.48;;;-8.40;99.90;;;;;;5035362;28;20206;-61
2024/01/10 07:49:04;;;;;;;28.88;13.63;;;-8.40;99.90;;;;;;5035873;28;20202;-62
2024/01/10 07:51:32;;;;;;;23.63;14.18;;;-8.40;99.90;;;;;;5035684;28;20229;-61
2024/01/10 07:53:59;;;;;;;19.23;12.35;;;-8.40;99.90;;;;;;5036324;28;20222;-62
2024/01/10 07:56:28;;;;;;;30.02;15.43;;;-8.40;99.90;;;;;;5036727;28;20580;-61
2024/01/10 07:58:54;;;;;;;19.67;12.23;;;-8.40;99.90;;;;;;5036633;28;20205;-61
2024/01/10 08:01:21;;;;;;;24.05;13.00;;;-8.30;99.90;;;;;;5037278;28;20226;-62
2024/01/10 08:03:48;;;;;;;31.75;16.30;;;-8.30;99.90;;;;;;5037706;28;20197;-62
2024/01/10 08:06:15;;;;;;;20.80;13.68;;;-8.30;99.90;;;;;;5036904;28;20305;-61
2024/01/10 08:08:42;;;;;;;17.60;13.65;;;-8.30;99.90;;;;;;5038924;28;20233;-60
2024/01/10 08:11:09;;;;;;;27.65;15.68;;;-8.30;99.90;;;;;;5039882;28;20227;-62
2024/01/10 08:13:37;;;;;;;21.65;13.98;;;-8.20;99.90;;;;;;5039998;28;20228;-63
2024/01/10 08:16:04;;;;;;;26.52;15.23;;;-8.20;99.90;;;;;;5040140;28;20219;-62
2024/01/10 08:18:31;;;;;;;28.50;14.77;;;-8.20;99.90;;;;;;5038417;28;20206;-63
2024/01/10 08:20:58;;;;;;;25.77;15.18;;;-8.10;99.90;;;;;;5038293;28;20312;-61
2024/01/10 08:23:26;;;;;;;25.80;14.85;;;-8.10;99.90;;;;;;5038400;28;20214;-61
2024/01/10 08:25:53;;;;;;;27.73;13.93;;;-8.10;99.90;;;;;;5039158;28;20202;-61
2024/01/10 08:28:20;;;;;;;24.67;13.30;;;-8.10;99.90;;;;;;5039704;28;20611;-61
2024/01/10 08:30:48;;;;;;;23.15;13.15;;;-8.10;99.90;;;;;;5038412;28;20218;-60
2024/01/10 08:33:14;;;;;;;26.05;15.00;;;-8.00;99.90;;;;;;5038165;28;20233;-60
2024/01/10 08:35:42;;;;;;;26.80;14.35;;;-8.00;99.90;;;;;;5039868;28;20668;-61
2024/01/10 08:38:09;;;;;;;21.38;12.85;;;-7.90;99.90;;;;;;5040623;28;20199;-62
2024/01/10 08:40:36;;;;;;;22.17;14.07;;;-7.90;99.90;;;;;;5039741;28;20202;-61
2024/01/10 08:43:03;;;;;;;28.90;14.10;;;-7.90;99.90;;;;;;5040414;28;20286;-62
2024/01/10 08:45:30;;;;;;;27.35;15.13;;;-7.80;99.90;;;;;;5040272;28;20209;-61
2024/01/10 08:47:59;;;;;;;29.02;15.10;;;-7.70;99.90;;;;;;5040490;28;20630;-61
2024/01/10 08:50:25;;;;;;;22.77;14.82;;;-7.60;99.90;;;;;;5040123;28;20361;-61
2024/01/10 08:52:52;;;;;;;34.17;17.30;;;-7.60;99.90;;;;;;5039589;28;20223;-62
2024/01/10 08:55:19;;;;;;;26.60;14.90;;;-7.50;99.90;;;;;;5039277;28;20213;-61
2024/01/10 08:57:46;;;;;;;23.52;14.65;;;-7.40;99.90;;;;;;5039499;28;20676;-62
2024/01/10 09:00:16;;;;;;;23.35;14.00;;;-7.50;99.90;;;;;;5041213;28;20226;-62
2024/01/10 09:02:43;;;;;;;25.48;14.35;;;-7.40;99.90;;;;;;5040769;28;20228;-60
2024/01/10 09:05:11;;;;;;;32.30;15.70;;;-7.40;99.90;;;;;;5040569;28;20207;-62
2024/01/10 09:07:38;;;;;;;27.35;15.60;;;-7.40;99.90;;;;;;5041273;28;20221;-62
2024/01/10 09:10:07;;;;;;;27.52;18.25;;;-7.30;99.90;;;;;;5041741;28;20202;-61
2024/01/10 09:12:34;;;;;;;28.95;17.40;;;-7.30;99.90;;;;;;5045876;28;20229;-62
2024/01/10 09:15:01;;;;;;;31.80;16.95;;;-7.20;99.90;;;;;;5042639;28;20206;-63
2024/01/10 09:17:28;;;;;;;33.28;18.13;;;-7.20;99.90;;;;;;5041070;28;20207;-61
2024/01/10 09:19:54;;;;;;;28.42;16.65;;;-7.10;99.90;;;;;;5042620;28;20202;-61
2024/01/10 09:22:22;;;;;;;27.65;16.23;;;-7.00;99.90;;;;;;5041434;28;20223;-62
2024/01/10 09:24:49;;;;;;;28.20;17.75;;;-7.00;99.90;;;;;;5042136;28;20680;-62
2024/01/10 09:27:16;;;;;;;33.15;17.88;;;-6.90;99.90;;;;;;5042367;28;20228;-62
2024/01/10 09:29:43;;;;;;;29.75;16.98;;;-6.80;99.90;;;;;;5042368;28;20226;-61
2024/01/10 09:32:10;;;;;;;25.90;15.85;;;-6.80;99.90;;;;;;5040599;28;20226;-62
2024/01/10 09:34:37;;;;;;;29.58;15.18;;;-6.70;99.90;;;;;;5039639;28;20206;-61
2024/01/10 09:37:05;;;;;;;30.10;18.17;;;-6.70;99.90;;;;;;5039207;28;20203;-62
2024/01/10 09:39:33;;;;;;;28.75;16.25;;;-6.70;99.90;;;;;;5040874;28;20206;-62
2024/01/10 09:41:59;;;;;;;33.35;18.05;;;-6.60;99.90;;;;;;5042433;28;20226;-63
2024/01/10 09:44:26;;;;;;;29.07;17.23;;;-6.60;99.90;;;;;;5041738;28;20233;-62
2024/01/10 09:46:54;;;;;;;26.30;16.45;;;-6.60;99.90;;;;;;5041206;28;20445;-62
2024/01/10 09:49:22;;;;;;;25.05;15.40;;;-6.50;99.90;;;;;;5040096;28;20202;-61
2024/01/10 09:51:50;;;;;;;30.15;16.55;;;-6.50;99.90;;;;;;5039932;28;20565;-62
2024/01/10 09:54:19;;;;;;;26.77;17.15;;;-6.40;99.90;;;;;;5037371;28;20222;-61
2024/01/10 09:56:48;;;;;;;29.27;15.82;;;-6.30;99.90;;;;;;5044269;28;20202;-62
2024/01/10 09:59:15;;;;;;;29.05;15.95;;;-6.30;99.90;;;;;;5041947;28;20301;-62
2024/01/10 10:01:42;;;;;;;31.73;16.90;;;-6.20;99.90;;;;;;5039275;28;20616;-61
2024/01/10 10:04:12;;;;;;;27.88;15.90;;;-6.10;99.90;;;;;;5039439;28;20237;-62
2024/01/10 10:06:39;;;;;;;33.40;17.77;;;-6.10;99.90;;;;;;5038956;28;20193;-61
2024/01/10 10:09:08;;;;;;;27.20;16.02;;;-6.00;99.90;;;;;;5038852;28;20304;-62
2024/01/10 10:11:35;;;;;;;28.02;16.75;;;-6.00;99.90;;;;;;5042685;28;20272;-62
2024/01/10 10:14:17;;;;;;;31.15;16.92;;;-5.90;99.90;;;;;;5036100;28;20312;-62
2024/01/10 10:16:44;;;;;;;29.50;17.17;;;-5.80;99.90;;;;;;5035425;28;20667;-61
2024/01/10 10:19:12;;;;;;;29.45;17.20;;;-5.80;99.90;;;;;;5035709;28;20198;-62
2024/01/10 10:21:39;;;;;;;31.23;15.40;;;-5.80;99.90;;;;;;5035396;28;20264;-61
2024/01/10 10:24:07;;;;;;;27.02;14.88;;;-5.80;99.90;;;;;;5035736;28;20289;-62
2024/01/10 10:26:35;;;;;;;31.90;18.30;;;-5.80;99.90;;;;;;5035824;28;20206;-61
2024/01/10 10:29:02;;;;;;;26.33;14.88;;;-5.70;99.90;;;;;;5035664;28;20213;-62
2024/01/10 10:31:32;;;;;;;27.83;16.13;;;-5.70;99.90;;;;;;5035695;28;20253;-62
2024/01/10 10:34:01;;;;;;;32.08;16.65;;;-5.60;99.90;;;;;;5036258;28;20222;-63
2024/01/10 10:36:28;;;;;;;30.25;17.58;;;-5.50;99.90;;;;;;5036591;28;20260;-62
2024/01/10 10:38:54;;;;;;;32.20;17.80;;;-5.40;99.90;;;;;;5035965;28;20203;-63
2024/01/10 10:41:22;;;;;;;32.33;18.30;;;-5.30;99.90;;;;;;5038198;28;20229;-62
2024/01/10 10:43:51;;;;;;;30.15;17.80;;;-5.20;99.90;;;;;;5035906;28;20267;-63
2024/01/10 10:46:18;;;;;;;26.63;16.58;;;-5.20;99.90;;;;;;5036321;28;20198;-62
2024/01/10 10:48:47;;;;;;;29.15;17.73;;;-5.10;99.90;;;;;;5036094;28;20233;-64
2024/01/10 10:51:20;;;;;;;28.95;16.73;;;-5.10;99.90;;;;;;5037684;28;20746;-63
2024/01/10 10:53:48;;;;;;;28.52;17.15;;;-5.00;99.90;;;;;;5037041;28;20206;-63
2024/01/10 10:56:15;;;;;;;27.27;17.52;;;-4.90;99.90;;;;;;5035473;28;20278;-63
2024/01/10 10:58:44;;;;;;;24.83;17.58;;;-4.90;99.90;;;;;;5034490;28;20212;-61
2024/01/10 11:01:12;;;;;;;32.15;18.05;;;-4.80;99.90;;;;;;5034524;28;20325;-62
2024/01/10 11:03:41;;;;;;;29.35;18.80;;;-4.80;99.90;;;;;;5034771;28;20282;-61
2024/01/10 11:06:09;;;;;;;30.55;17.25;;;-4.70;99.90;;;;;;5034367;28;20271;-63
2024/01/10 11:08:41;;;;;;;27.02;17.55;;;-4.60;99.90;;;;;;5034723;28;20202;-63
2024/01/10 11:11:20;;;;;;;31.52;18.38;;;-4.60;99.90;;;;;;5034217;28;20739;-63
2024/01/10 11:14:02;;;;;;;25.33;16.40;;;-4.50;99.90;;;;;;5034444;28;20206;-63
2024/01/10 11:16:47;;;;;;;26.17;16.63;;;-4.50;99.90;;;;;;5034787;28;20191;-63
2024/01/10 11:19:56;;;;;;;29.80;18.48;;;-4.40;99.90;;;;;;5034738;28;20182;-62
2024/01/10 11:22:40;;;;;;;25.92;16.60;;;-4.40;99.90;;;;;;5022234;28;20722;-62
2024/01/10 11:25:07;;;;;;;30.98;17.70;;;-4.30;99.90;;;;;;5034604;28;20269;-65
2024/01/10 11:27:34;;;;;;;31.88;18.48;;;-4.30;99.50;;;;;;5033611;28;20199;-63
2024/01/10 11:30:04;;;;;;;29.65;17.92;;;-4.20;99.30;;;;;;5034167;28;20289;-64
2024/01/10 11:32:33;;;;;;;29.65;17.20;;;-4.20;99.00;;;;;;5034534;28;20594;-63
2024/01/10 11:35:00;;;;;;;28.48;16.60;;;-4.20;98.40;;;;;;5034271;28;20250;-63
2024/01/10 11:37:40;;;;;;;26.95;18.92;;;-4.20;97.80;;;;;;5033794;28;20206;-63
2024/01/10 11:40:10;;;;;;;29.42;18.00;;;-4.20;97.40;;;;;;5035230;28;20186;-64
2024/01/10 11:42:42;;;;;;;26.40;17.13;;;-4.20;97.00;;;;;;5034219;28;20712;-63
2024/01/10 11:45:09;;;;;;;30.48;17.80;;;-4.20;96.70;;;;;;5034268;28;20551;-63
2024/01/10 11:47:40;;;;;;;30.25;15.30;;;-4.10;96.40;;;;;;5034420;28;20206;-64
2024/01/10 11:50:09;;;;;;;34.50;17.67;;;-4.10;96.00;;;;;;5034727;28;20206;-63
2024/01/10 11:52:38;;;;;;;27.95;16.80;;;-4.00;95.60;;;;;;5034439;28;20368;-63
2024/01/10 11:55:07;;;;;;;29.08;16.42;;;-4.00;95.10;;;;;;5033897;28;20225;-64
2024/01/10 11:57:34;;;;;;;31.58;16.67;;;-3.90;94.80;;;;;;5034014;28;20214;-63
2024/01/10 12:00:02;;;;;;;35.90;18.42;;;-3.80;94.70;;;;;;5033295;28;20297;-63
2024/01/10 12:02:30;;;;;;;33.28;17.10;;;-3.70;94.40;;;;;;5033544;28;20253;-64
2024/01/10 12:04:57;;;;;;;31.65;19.08;;;-3.70;94.10;;;;;;5034645;28;20207;-64
2024/01/10 12:07:25;;;;;;;26.15;17.90;;;-3.60;93.80;;;;;;5034106;28;20211;-64
2024/01/10 12:09:54;;;;;;;28.30;18.15;;;-3.50;93.50;;;;;;5033780;28;20228;-64
2024/01/10 12:12:21;;;;;;;31.88;17.10;;;-3.50;93.10;;;;;;5033534;28;20230;-63
2024/01/10 12:14:48;;;;;;;31.85;17.00;;;-3.50;92.60;;;;;;5033922;28;20224;-63
2024/01/10 12:17:14;;;;;;;33.55;18.30;;;-3.40;92.40;;;;;;5036690;28;20205;-64
2024/01/10 12:19:44;;;;;;;28.48;16.80;;;-3.40;92.00;;;;;;5034657;28;20209;-64
2024/01/10 12:22:11;;;;;;;27.98;16.85;;;-3.40;91.40;;;;;;5033502;28;20273;-64
2024/01/10 12:24:44;;;;;;;28.58;17.58;;;-3.40;91.00;;;;;;5034253;28;20209;-65
2024/01/10 12:27:13;;;;;;;30.17;18.15;;;-3.30;90.70;;;;;;5034396;28;20191;-64
2024/01/10 12:29:40;;;;;;;33.00;19.02;;;-3.30;90.40;;;;;;5033806;28;20663;-64
2024/01/10 12:32:09;;;;;;;29.30;17.50;;;-3.20;90.30;;;;;;5034341;28;20218;-65
2024/01/10 12:34:39;;;;;;;31.35;18.23;;;-3.20;90.10;;;;;;5038092;28;20298;-64